sensor_id;sensor_type;location;lat;lon;timestamp;P1;durP1;ratioP1;P2;durP2;ratioP2
84491;SDS011;74718;40.778;21.400;2024-01-30T00:01:15;8.20;;;5.30;;
84491;SDS011;74718;40.778;21.400;2024-01-30T00:03:40;8.10;;;4.60;;
84491;SDS011;74718;40.778;21.400;2024-01-30T00:06:07;8.40;;;4.40;;
84491;SDS011;74718;40.778;21.400;2024-01-30T00:08:33;6.60;;;4.20;;
84491;SDS011;74718;40.778;21.400;2024-01-30T00:10:59;8.60;;;4.70;;
84491;SDS011;74718;40.778;21.400;2024-01-30T00:13:25;8.00;;;4.50;;
84491;SDS011;74718;40.778;21.400;2024-01-30T00:15:51;8.30;;;4.80;;
84491;SDS011;74718;40.778;21.400;2024-01-30T00:18:16;8.90;;;5.90;;
84491;SDS011;74718;40.778;21.400;2024-01-30T00:20:43;9.50;;;4.80;;
84491;SDS011;74718;40.778;21.400;2024-01-30T00:23:09;35.40;;;16.40;;
84491;SDS011;74718;40.778;21.400;2024-01-30T00:25:34;9.10;;;4.70;;
84491;SDS011;74718;40.778;21.400;2024-01-30T00:28:00;8.50;;;4.70;;
84491;SDS011;74718;40.778;21.400;2024-01-30T00:30:26;7.30;;;4.20;;
84491;SDS011;74718;40.778;21.400;2024-01-30T00:32:51;7.00;;;4.30;;
84491;SDS011;74718;40.778;21.400;2024-01-30T00:35:17;8.10;;;4.30;;
84491;SDS011;74718;40.778;21.400;2024-01-30T00:37:42;7.00;;;4.00;;
84491;SDS011;74718;40.778;21.400;2024-01-30T00:40:08;9.20;;;4.80;;
84491;SDS011;74718;40.778;21.400;2024-01-30T00:42:40;20.60;;;12.00;;
84491;SDS011;74718;40.778;21.400;2024-01-30T00:45:11;11.50;;;8.60;;
84491;SDS011;74718;40.778;21.400;2024-01-30T00:47:37;8.60;;;4.80;;
84491;SDS011;74718;40.778;21.400;2024-01-30T00:50:03;8.80;;;5.20;;
84491;SDS011;74718;40.778;21.400;2024-01-30T00:52:29;11.00;;;5.30;;
84491;SDS011;74718;40.778;21.400;2024-01-30T00:54:54;9.50;;;5.60;;
84491;SDS011;74718;40.778;21.400;2024-01-30T00:57:20;12.00;;;6.70;;
84491;SDS011;74718;40.778;21.400;2024-01-30T00:59:45;9.40;;;5.60;;
84491;SDS011;74718;40.778;21.400;2024-01-30T01:02:11;7.30;;;4.30;;
84491;SDS011;74718;40.778;21.400;2024-01-30T01:04:36;7.80;;;4.70;;
84491;SDS011;74718;40.778;21.400;2024-01-30T01:07:02;9.80;;;5.90;;
84491;SDS011;74718;40.778;21.400;2024-01-30T01:09:28;12.30;;;5.40;;
84491;SDS011;74718;40.778;21.400;2024-01-30T01:11:53;11.00;;;5.70;;
84491;SDS011;74718;40.778;21.400;2024-01-30T01:14:18;10.60;;;5.80;;
84491;SDS011;74718;40.778;21.400;2024-01-30T01:16:44;16.60;;;8.60;;
84491;SDS011;74718;40.778;21.400;2024-01-30T01:19:10;13.10;;;7.80;;
84491;SDS011;74718;40.778;21.400;2024-01-30T01:21:36;10.20;;;5.90;;
84491;SDS011;74718;40.778;21.400;2024-01-30T01:24:01;11.10;;;6.70;;
84491;SDS011;74718;40.778;21.400;2024-01-30T01:26:27;10.60;;;6.50;;
84491;SDS011;74718;40.778;21.400;2024-01-30T01:28:53;11.80;;;5.50;;
84491;SDS011;74718;40.778;21.400;2024-01-30T01:31:18;10.50;;;6.60;;
84491;SDS011;74718;40.778;21.400;2024-01-30T01:33:44;13.90;;;6.10;;
84491;SDS011;74718;40.778;21.400;2024-01-30T01:36:09;13.80;;;6.90;;
84491;SDS011;74718;40.778;21.400;2024-01-30T01:38:35;10.20;;;5.30;;
84491;SDS011;74718;40.778;21.400;2024-01-30T01:41:00;8.60;;;5.30;;
84491;SDS011;74718;40.778;21.400;2024-01-30T01:43:26;12.40;;;7.20;;
84491;SDS011;74718;40.778;21.400;2024-01-30T01:45:51;13.80;;;7.10;;
84491;SDS011;74718;40.778;21.400;2024-01-30T01:48:17;13.40;;;6.90;;
84491;SDS011;74718;40.778;21.400;2024-01-30T01:50:42;10.40;;;6.00;;
84491;SDS011;74718;40.778;21.400;2024-01-30T01:53:08;8.60;;;4.70;;
84491;SDS011;74718;40.778;21.400;2024-01-30T01:55:34;10.10;;;5.60;;
84491;SDS011;74718;40.778;21.400;2024-01-30T01:58:01;9.00;;;4.80;;
84491;SDS011;74718;40.778;21.400;2024-01-30T02:00:27;7.40;;;4.10;;
84491;SDS011;74718;40.778;21.400;2024-01-30T02:02:54;7.80;;;4.40;;
84491;SDS011;74718;40.778;21.400;2024-01-30T02:05:20;7.40;;;4.50;;
84491;SDS011;74718;40.778;21.400;2024-01-30T02:07:46;10.40;;;5.80;;
84491;SDS011;74718;40.778;21.400;2024-01-30T02:10:13;8.20;;;5.30;;
84491;SDS011;74718;40.778;21.400;2024-01-30T02:12:39;9.90;;;5.10;;
84491;SDS011;74718;40.778;21.400;2024-01-30T02:15:05;9.10;;;4.90;;
84491;SDS011;74718;40.778;21.400;2024-01-30T02:17:32;9.20;;;4.90;;
84491;SDS011;74718;40.778;21.400;2024-01-30T02:19:58;10.40;;;5.80;;
84491;SDS011;74718;40.778;21.400;2024-01-30T02:22:23;7.90;;;4.40;;
84491;SDS011;74718;40.778;21.400;2024-01-30T02:24:49;8.30;;;5.50;;
84491;SDS011;74718;40.778;21.400;2024-01-30T02:27:15;8.20;;;4.40;;
84491;SDS011;74718;40.778;21.400;2024-01-30T02:29:40;8.10;;;4.90;;
84491;SDS011;74718;40.778;21.400;2024-01-30T02:32:06;9.30;;;5.10;;
84491;SDS011;74718;40.778;21.400;2024-01-30T02:34:33;7.70;;;4.90;;
84491;SDS011;74718;40.778;21.400;2024-01-30T02:36:59;9.20;;;4.80;;
84491;SDS011;74718;40.778;21.400;2024-01-30T02:39:24;9.00;;;5.50;;
84491;SDS011;74718;40.778;21.400;2024-01-30T02:41:50;53.20;;;20.60;;
84491;SDS011;74718;40.778;21.400;2024-01-30T02:44:15;15.20;;;7.70;;
84491;SDS011;74718;40.778;21.400;2024-01-30T02:46:41;8.30;;;4.40;;
84491;SDS011;74718;40.778;21.400;2024-01-30T02:49:06;9.30;;;7.90;;
84491;SDS011;74718;40.778;21.400;2024-01-30T02:51:32;8.80;;;5.00;;
84491;SDS011;74718;40.778;21.400;2024-01-30T02:53:57;7.70;;;4.00;;
84491;SDS011;74718;40.778;21.400;2024-01-30T02:56:23;6.80;;;4.10;;
84491;SDS011;74718;40.778;21.400;2024-01-30T02:58:48;6.90;;;4.20;;
84491;SDS011;74718;40.778;21.400;2024-01-30T03:01:14;8.40;;;4.60;;
84491;SDS011;74718;40.778;21.400;2024-01-30T03:03:39;6.50;;;3.70;;
84491;SDS011;74718;40.778;21.400;2024-01-30T03:06:05;8.40;;;4.80;;
84491;SDS011;74718;40.778;21.400;2024-01-30T03:08:32;9.90;;;4.50;;
84491;SDS011;74718;40.778;21.400;2024-01-30T03:10:59;8.30;;;4.90;;
84491;SDS011;74718;40.778;21.400;2024-01-30T03:13:25;7.40;;;5.10;;
84491;SDS011;74718;40.778;21.400;2024-01-30T03:15:51;8.70;;;4.50;;
84491;SDS011;74718;40.778;21.400;2024-01-30T03:18:17;8.00;;;4.30;;
84491;SDS011;74718;40.778;21.400;2024-01-30T03:20:43;8.50;;;4.10;;
84491;SDS011;74718;40.778;21.400;2024-01-30T03:23:08;9.00;;;4.30;;
84491;SDS011;74718;40.778;21.400;2024-01-30T03:25:34;7.90;;;5.20;;
84491;SDS011;74718;40.778;21.400;2024-01-30T03:27:59;9.00;;;4.40;;
84491;SDS011;74718;40.778;21.400;2024-01-30T03:30:25;8.70;;;4.00;;
84491;SDS011;74718;40.778;21.400;2024-01-30T03:32:50;8.10;;;5.30;;
84491;SDS011;74718;40.778;21.400;2024-01-30T03:35:16;10.10;;;5.40;;
84491;SDS011;74718;40.778;21.400;2024-01-30T03:37:41;7.20;;;3.70;;
84491;SDS011;74718;40.778;21.400;2024-01-30T03:40:07;7.50;;;3.90;;
84491;SDS011;74718;40.778;21.400;2024-01-30T03:42:33;9.30;;;5.00;;
84491;SDS011;74718;40.778;21.400;2024-01-30T03:44:58;7.90;;;5.80;;
84491;SDS011;74718;40.778;21.400;2024-01-30T03:47:24;7.10;;;4.30;;
84491;SDS011;74718;40.778;21.400;2024-01-30T03:49:49;9.20;;;4.20;;
84491;SDS011;74718;40.778;21.400;2024-01-30T03:52:15;11.80;;;6.10;;
84491;SDS011;74718;40.778;21.400;2024-01-30T03:54:40;9.20;;;4.50;;
84491;SDS011;74718;40.778;21.400;2024-01-30T03:57:06;8.10;;;5.70;;
84491;SDS011;74718;40.778;21.400;2024-01-30T03:59:31;7.40;;;4.50;;
84491;SDS011;74718;40.778;21.400;2024-01-30T04:01:57;9.30;;;4.50;;
84491;SDS011;74718;40.778;21.400;2024-01-30T04:04:23;8.10;;;4.50;;
84491;SDS011;74718;40.778;21.400;2024-01-30T04:06:48;7.80;;;3.90;;
84491;SDS011;74718;40.778;21.400;2024-01-30T04:09:14;8.30;;;5.10;;
84491;SDS011;74718;40.778;21.400;2024-01-30T04:11:40;7.40;;;4.10;;
84491;SDS011;74718;40.778;21.400;2024-01-30T04:14:07;7.30;;;4.00;;
84491;SDS011;74718;40.778;21.400;2024-01-30T04:16:33;6.90;;;4.00;;
84491;SDS011;74718;40.778;21.400;2024-01-30T04:18:59;7.60;;;4.50;;
84491;SDS011;74718;40.778;21.400;2024-01-30T04:21:24;9.90;;;5.40;;
84491;SDS011;74718;40.778;21.400;2024-01-30T04:23:50;8.10;;;4.00;;
84491;SDS011;74718;40.778;21.400;2024-01-30T04:26:17;7.80;;;4.80;;
84491;SDS011;74718;40.778;21.400;2024-01-30T04:28:45;7.20;;;4.00;;
84491;SDS011;74718;40.778;21.400;2024-01-30T04:31:11;8.70;;;4.70;;
84491;SDS011;74718;40.778;21.400;2024-01-30T04:33:37;9.20;;;4.70;;
84491;SDS011;74718;40.778;21.400;2024-01-30T04:36:02;12.20;;;5.80;;
84491;SDS011;74718;40.778;21.400;2024-01-30T04:38:30;13.30;;;5.50;;
84491;SDS011;74718;40.778;21.400;2024-01-30T04:40:55;11.80;;;5.30;;
84491;SDS011;74718;40.778;21.400;2024-01-30T04:43:21;8.70;;;4.90;;
84491;SDS011;74718;40.778;21.400;2024-01-30T04:45:46;9.10;;;5.60;;
84491;SDS011;74718;40.778;21.400;2024-01-30T04:48:12;10.20;;;5.10;;
84491;SDS011;74718;40.778;21.400;2024-01-30T04:50:38;10.40;;;6.10;;
84491;SDS011;74718;40.778;21.400;2024-01-30T04:53:04;10.70;;;6.00;;
84491;SDS011;74718;40.778;21.400;2024-01-30T04:55:29;9.20;;;5.40;;
84491;SDS011;74718;40.778;21.400;2024-01-30T04:57:55;10.60;;;5.20;;
84491;SDS011;74718;40.778;21.400;2024-01-30T05:00:20;11.70;;;7.10;;
84491;SDS011;74718;40.778;21.400;2024-01-30T05:02:46;13.10;;;7.70;;
84491;SDS011;74718;40.778;21.400;2024-01-30T05:05:11;11.30;;;6.70;;
84491;SDS011;74718;40.778;21.400;2024-01-30T05:07:38;11.40;;;6.10;;
84491;SDS011;74718;40.778;21.400;2024-01-30T05:10:04;21.50;;;10.40;;
84491;SDS011;74718;40.778;21.400;2024-01-30T05:12:30;18.80;;;9.00;;
84491;SDS011;74718;40.778;21.400;2024-01-30T05:14:55;11.70;;;6.10;;
84491;SDS011;74718;40.778;21.400;2024-01-30T05:17:21;11.30;;;6.90;;
84491;SDS011;74718;40.778;21.400;2024-01-30T05:19:46;11.60;;;7.30;;
84491;SDS011;74718;40.778;21.400;2024-01-30T05:22:12;8.60;;;5.70;;
84491;SDS011;74718;40.778;21.400;2024-01-30T05:24:41;11.20;;;6.50;;
84491;SDS011;74718;40.778;21.400;2024-01-30T05:27:10;10.70;;;6.00;;
84491;SDS011;74718;40.778;21.400;2024-01-30T05:29:36;19.00;;;8.50;;
84491;SDS011;74718;40.778;21.400;2024-01-30T05:32:02;15.50;;;7.30;;
84491;SDS011;74718;40.778;21.400;2024-01-30T05:34:28;12.20;;;6.20;;
84491;SDS011;74718;40.778;21.400;2024-01-30T05:36:54;11.20;;;6.00;;
84491;SDS011;74718;40.778;21.400;2024-01-30T05:39:19;15.60;;;9.70;;
84491;SDS011;74718;40.778;21.400;2024-01-30T05:41:45;12.10;;;8.10;;
84491;SDS011;74718;40.778;21.400;2024-01-30T05:44:10;15.50;;;8.00;;
84491;SDS011;74718;40.778;21.400;2024-01-30T05:46:36;12.30;;;8.60;;
84491;SDS011;74718;40.778;21.400;2024-01-30T05:49:01;17.20;;;8.70;;
84491;SDS011;74718;40.778;21.400;2024-01-30T05:51:27;16.40;;;9.20;;
84491;SDS011;74718;40.778;21.400;2024-01-30T05:53:53;16.00;;;8.30;;
84491;SDS011;74718;40.778;21.400;2024-01-30T05:56:19;10.70;;;5.60;;
84491;SDS011;74718;40.778;21.400;2024-01-30T05:58:44;9.90;;;4.90;;
84491;SDS011;74718;40.778;21.400;2024-01-30T06:01:10;8.70;;;5.00;;
84491;SDS011;74718;40.778;21.400;2024-01-30T06:03:36;9.70;;;5.60;;
84491;SDS011;74718;40.778;21.400;2024-01-30T06:06:01;9.60;;;6.10;;
84491;SDS011;74718;40.778;21.400;2024-01-30T06:08:27;11.30;;;5.80;;
84491;SDS011;74718;40.778;21.400;2024-01-30T06:10:53;12.60;;;7.40;;
84491;SDS011;74718;40.778;21.400;2024-01-30T06:13:19;18.10;;;9.70;;
84491;SDS011;74718;40.778;21.400;2024-01-30T06:15:45;17.70;;;10.20;;
84491;SDS011;74718;40.778;21.400;2024-01-30T06:18:11;21.60;;;10.90;;
84491;SDS011;74718;40.778;21.400;2024-01-30T06:20:36;27.30;;;12.50;;
84491;SDS011;74718;40.778;21.400;2024-01-30T06:23:02;34.40;;;18.80;;
84491;SDS011;74718;40.778;21.400;2024-01-30T06:25:28;59.70;;;31.30;;
84491;SDS011;74718;40.778;21.400;2024-01-30T06:27:54;63.40;;;27.50;;
84491;SDS011;74718;40.778;21.400;2024-01-30T06:30:19;42.60;;;20.80;;
84491;SDS011;74718;40.778;21.400;2024-01-30T06:32:45;29.10;;;13.80;;
84491;SDS011;74718;40.778;21.400;2024-01-30T06:35:10;16.80;;;8.00;;
84491;SDS011;74718;40.778;21.400;2024-01-30T06:37:36;18.80;;;11.80;;
84491;SDS011;74718;40.778;21.400;2024-01-30T06:40:02;20.80;;;11.70;;
84491;SDS011;74718;40.778;21.400;2024-01-30T06:42:30;16.70;;;8.20;;
84491;SDS011;74718;40.778;21.400;2024-01-30T06:44:55;21.00;;;12.90;;
84491;SDS011;74718;40.778;21.400;2024-01-30T06:47:21;18.40;;;10.70;;
84491;SDS011;74718;40.778;21.400;2024-01-30T06:49:47;19.20;;;12.30;;
84491;SDS011;74718;40.778;21.400;2024-01-30T06:52:12;49.00;;;25.60;;
84491;SDS011;74718;40.778;21.400;2024-01-30T06:54:38;20.00;;;11.50;;
84491;SDS011;74718;40.778;21.400;2024-01-30T06:57:04;17.10;;;10.30;;
84491;SDS011;74718;40.778;21.400;2024-01-30T06:59:34;12.10;;;8.10;;
84491;SDS011;74718;40.778;21.400;2024-01-30T07:02:00;9.70;;;6.00;;
84491;SDS011;74718;40.778;21.400;2024-01-30T07:04:25;11.60;;;6.20;;
84491;SDS011;74718;40.778;21.400;2024-01-30T07:06:50;9.20;;;5.20;;
84491;SDS011;74718;40.778;21.400;2024-01-30T07:09:18;8.30;;;3.90;;
84491;SDS011;74718;40.778;21.400;2024-01-30T07:11:44;10.70;;;4.70;;
84491;SDS011;74718;40.778;21.400;2024-01-30T07:14:10;9.40;;;4.40;;
84491;SDS011;74718;40.778;21.400;2024-01-30T07:16:35;12.50;;;6.10;;
84491;SDS011;74718;40.778;21.400;2024-01-30T07:19:01;7.00;;;4.40;;
84491;SDS011;74718;40.778;21.400;2024-01-30T07:21:27;8.10;;;4.30;;
84491;SDS011;74718;40.778;21.400;2024-01-30T07:23:56;11.10;;;5.60;;
84491;SDS011;74718;40.778;21.400;2024-01-30T07:28:48;9.70;;;5.20;;
84491;SDS011;74718;40.778;21.400;2024-01-30T07:31:15;14.30;;;7.00;;
84491;SDS011;74718;40.778;21.400;2024-01-30T07:33:40;10.10;;;5.80;;
84491;SDS011;74718;40.778;21.400;2024-01-30T07:36:06;10.30;;;7.00;;
84491;SDS011;74718;40.778;21.400;2024-01-30T07:38:31;8.00;;;5.00;;
84491;SDS011;74718;40.778;21.400;2024-01-30T07:40:57;8.00;;;4.80;;
84491;SDS011;74718;40.778;21.400;2024-01-30T07:43:23;9.30;;;4.70;;
84491;SDS011;74718;40.778;21.400;2024-01-30T07:45:48;9.00;;;4.90;;
84491;SDS011;74718;40.778;21.400;2024-01-30T07:48:14;8.70;;;5.30;;
84491;SDS011;74718;40.778;21.400;2024-01-30T07:50:39;8.40;;;5.20;;
84491;SDS011;74718;40.778;21.400;2024-01-30T07:53:05;13.40;;;7.70;;
84491;SDS011;74718;40.778;21.400;2024-01-30T07:55:30;11.00;;;5.90;;
84491;SDS011;74718;40.778;21.400;2024-01-30T07:57:57;11.70;;;6.40;;
84491;SDS011;74718;40.778;21.400;2024-01-30T08:00:24;18.60;;;8.30;;
84491;SDS011;74718;40.778;21.400;2024-01-30T08:02:50;13.30;;;7.30;;
84491;SDS011;74718;40.778;21.400;2024-01-30T08:05:15;10.50;;;5.50;;
84491;SDS011;74718;40.778;21.400;2024-01-30T08:07:41;12.00;;;7.10;;
84491;SDS011;74718;40.778;21.400;2024-01-30T08:10:11;10.50;;;6.00;;
84491;SDS011;74718;40.778;21.400;2024-01-30T08:12:38;9.10;;;4.70;;
84491;SDS011;74718;40.778;21.400;2024-01-30T08:15:04;8.40;;;5.10;;
84491;SDS011;74718;40.778;21.400;2024-01-30T08:17:30;9.60;;;5.20;;
84491;SDS011;74718;40.778;21.400;2024-01-30T08:19:55;8.20;;;4.70;;
84491;SDS011;74718;40.778;21.400;2024-01-30T08:22:21;9.50;;;5.30;;
84491;SDS011;74718;40.778;21.400;2024-01-30T08:24:46;9.20;;;5.30;;
84491;SDS011;74718;40.778;21.400;2024-01-30T08:27:12;7.80;;;5.00;;
84491;SDS011;74718;40.778;21.400;2024-01-30T08:29:37;10.90;;;5.60;;
84491;SDS011;74718;40.778;21.400;2024-01-30T08:32:06;8.70;;;5.40;;
84491;SDS011;74718;40.778;21.400;2024-01-30T08:34:32;10.90;;;5.90;;
84491;SDS011;74718;40.778;21.400;2024-01-30T08:36:58;9.90;;;6.60;;
84491;SDS011;74718;40.778;21.400;2024-01-30T08:39:23;9.90;;;6.10;;
84491;SDS011;74718;40.778;21.400;2024-01-30T08:41:49;8.50;;;4.60;;
84491;SDS011;74718;40.778;21.400;2024-01-30T08:44:14;7.70;;;4.50;;
84491;SDS011;74718;40.778;21.400;2024-01-30T08:46:40;10.20;;;5.10;;
84491;SDS011;74718;40.778;21.400;2024-01-30T08:49:05;7.80;;;5.20;;
84491;SDS011;74718;40.778;21.400;2024-01-30T08:51:31;8.30;;;5.20;;
84491;SDS011;74718;40.778;21.400;2024-01-30T08:53:56;8.40;;;4.50;;
84491;SDS011;74718;40.778;21.400;2024-01-30T08:56:22;7.30;;;3.90;;
84491;SDS011;74718;40.778;21.400;2024-01-30T08:58:48;12.50;;;6.20;;
84491;SDS011;74718;40.778;21.400;2024-01-30T09:01:14;18.00;;;7.40;;
84491;SDS011;74718;40.778;21.400;2024-01-30T09:03:40;11.50;;;6.10;;
84491;SDS011;74718;40.778;21.400;2024-01-30T09:06:08;22.00;;;8.80;;
84491;SDS011;74718;40.778;21.400;2024-01-30T09:08:35;12.80;;;6.40;;
84491;SDS011;74718;40.778;21.400;2024-01-30T09:11:00;11.30;;;5.50;;
84491;SDS011;74718;40.778;21.400;2024-01-30T09:13:26;16.50;;;7.30;;
84491;SDS011;74718;40.778;21.400;2024-01-30T09:15:51;13.20;;;6.80;;
84491;SDS011;74718;40.778;21.400;2024-01-30T09:18:18;10.40;;;5.10;;
84491;SDS011;74718;40.778;21.400;2024-01-30T09:20:43;16.50;;;7.70;;
84491;SDS011;74718;40.778;21.400;2024-01-30T09:23:12;15.40;;;7.70;;
84491;SDS011;74718;40.778;21.400;2024-01-30T09:25:38;8.70;;;5.00;;
84491;SDS011;74718;40.778;21.400;2024-01-30T09:28:04;12.90;;;6.70;;
84491;SDS011;74718;40.778;21.400;2024-01-30T09:30:30;19.30;;;9.60;;
84491;SDS011;74718;40.778;21.400;2024-01-30T09:32:55;16.40;;;8.90;;
84491;SDS011;74718;40.778;21.400;2024-01-30T09:35:21;7.90;;;5.20;;
84491;SDS011;74718;40.778;21.400;2024-01-30T09:37:47;9.30;;;5.50;;
84491;SDS011;74718;40.778;21.400;2024-01-30T09:40:13;9.40;;;5.30;;
84491;SDS011;74718;40.778;21.400;2024-01-30T09:42:44;10.20;;;5.70;;
84491;SDS011;74718;40.778;21.400;2024-01-30T09:45:14;12.20;;;5.90;;
84491;SDS011;74718;40.778;21.400;2024-01-30T09:47:42;21.60;;;7.40;;
84491;SDS011;74718;40.778;21.400;2024-01-30T09:50:13;13.90;;;7.20;;
84491;SDS011;74718;40.778;21.400;2024-01-30T09:52:39;11.30;;;7.50;;
84491;SDS011;74718;40.778;21.400;2024-01-30T09:55:06;11.70;;;5.50;;
84491;SDS011;74718;40.778;21.400;2024-01-30T09:57:34;9.40;;;5.50;;
84491;SDS011;74718;40.778;21.400;2024-01-30T10:00:00;11.10;;;6.40;;
84491;SDS011;74718;40.778;21.400;2024-01-30T10:02:26;8.40;;;4.80;;
84491;SDS011;74718;40.778;21.400;2024-01-30T10:04:52;14.70;;;6.60;;
84491;SDS011;74718;40.778;21.400;2024-01-30T10:07:18;13.80;;;7.60;;
84491;SDS011;74718;40.778;21.400;2024-01-30T10:09:44;9.30;;;5.60;;
84491;SDS011;74718;40.778;21.400;2024-01-30T10:12:10;7.90;;;4.60;;
84491;SDS011;74718;40.778;21.400;2024-01-30T10:14:39;9.40;;;5.00;;
84491;SDS011;74718;40.778;21.400;2024-01-30T10:17:07;10.40;;;5.50;;
84491;SDS011;74718;40.778;21.400;2024-01-30T10:19:35;9.20;;;4.70;;
84491;SDS011;74718;40.778;21.400;2024-01-30T10:22:03;10.40;;;4.70;;
84491;SDS011;74718;40.778;21.400;2024-01-30T10:24:29;9.40;;;5.50;;
84491;SDS011;74718;40.778;21.400;2024-01-30T10:26:55;9.70;;;6.40;;
84491;SDS011;74718;40.778;21.400;2024-01-30T10:29:21;9.30;;;4.70;;
84491;SDS011;74718;40.778;21.400;2024-01-30T10:31:57;7.70;;;4.70;;
84491;SDS011;74718;40.778;21.400;2024-01-30T10:34:26;7.00;;;4.50;;
84491;SDS011;74718;40.778;21.400;2024-01-30T10:36:56;9.70;;;4.80;;
84491;SDS011;74718;40.778;21.400;2024-01-30T10:39:25;7.40;;;4.30;;
84491;SDS011;74718;40.778;21.400;2024-01-30T10:41:54;11.00;;;4.60;;
84491;SDS011;74718;40.778;21.400;2024-01-30T10:44:24;7.50;;;3.90;;
84491;SDS011;74718;40.778;21.400;2024-01-30T10:46:56;39.90;;;16.60;;
84491;SDS011;74718;40.778;21.400;2024-01-30T10:49:28;8.40;;;4.30;;
84491;SDS011;74718;40.778;21.400;2024-01-30T10:51:54;10.10;;;6.60;;
84491;SDS011;74718;40.778;21.400;2024-01-30T10:54:20;7.50;;;4.30;;
84491;SDS011;74718;40.778;21.400;2024-01-30T10:56:48;7.40;;;3.70;;
84491;SDS011;74718;40.778;21.400;2024-01-30T10:59:14;8.50;;;4.30;;
84491;SDS011;74718;40.778;21.400;2024-01-30T11:01:41;7.60;;;4.30;;
84491;SDS011;74718;40.778;21.400;2024-01-30T11:04:06;6.90;;;4.60;;
84491;SDS011;74718;40.778;21.400;2024-01-30T11:06:32;7.10;;;4.20;;
84491;SDS011;74718;40.778;21.400;2024-01-30T11:09:09;8.60;;;4.60;;
84491;SDS011;74718;40.778;21.400;2024-01-30T11:11:57;15.30;;;5.50;;
84491;SDS011;74718;40.778;21.400;2024-01-30T11:14:27;8.90;;;4.50;;
84491;SDS011;74718;40.778;21.400;2024-01-30T11:16:58;7.70;;;4.60;;
84491;SDS011;74718;40.778;21.400;2024-01-30T11:19:24;10.40;;;5.10;;
84491;SDS011;74718;40.778;21.400;2024-01-30T11:21:57;8.90;;;4.70;;
84491;SDS011;74718;40.778;21.400;2024-01-30T11:24:23;13.80;;;5.80;;
84491;SDS011;74718;40.778;21.400;2024-01-30T11:26:49;11.10;;;6.10;;
84491;SDS011;74718;40.778;21.400;2024-01-30T11:29:24;11.60;;;6.00;;
84491;SDS011;74718;40.778;21.400;2024-01-30T11:31:56;14.60;;;6.60;;
84491;SDS011;74718;40.778;21.400;2024-01-30T11:34:23;8.70;;;6.40;;
84491;SDS011;74718;40.778;21.400;2024-01-30T11:36:52;9.80;;;4.10;;
84491;SDS011;74718;40.778;21.400;2024-01-30T11:39:24;7.80;;;4.40;;
84491;SDS011;74718;40.778;21.400;2024-01-30T11:41:51;13.90;;;6.60;;
84491;SDS011;74718;40.778;21.400;2024-01-30T11:44:21;7.60;;;3.90;;
84491;SDS011;74718;40.778;21.400;2024-01-30T11:46:48;13.70;;;5.70;;
84491;SDS011;74718;40.778;21.400;2024-01-30T11:49:15;11.30;;;4.90;;
84491;SDS011;74718;40.778;21.400;2024-01-30T11:51:41;13.30;;;4.70;;
84491;SDS011;74718;40.778;21.400;2024-01-30T11:54:07;8.10;;;4.40;;
84491;SDS011;74718;40.778;21.400;2024-01-30T11:56:33;31.50;;;11.10;;
84491;SDS011;74718;40.778;21.400;2024-01-30T11:58:58;6.10;;;3.30;;
84491;SDS011;74718;40.778;21.400;2024-01-30T12:01:25;5.70;;;3.20;;
84491;SDS011;74718;40.778;21.400;2024-01-30T12:03:52;11.50;;;5.00;;
84491;SDS011;74718;40.778;21.400;2024-01-30T12:06:18;20.80;;;7.90;;
84491;SDS011;74718;40.778;21.400;2024-01-30T12:08:55;18.00;;;7.50;;
84491;SDS011;74718;40.778;21.400;2024-01-30T12:11:25;13.40;;;6.30;;
84491;SDS011;74718;40.778;21.400;2024-01-30T12:13:52;12.00;;;6.70;;
84491;SDS011;74718;40.778;21.400;2024-01-30T12:16:19;8.60;;;3.80;;
84491;SDS011;74718;40.778;21.400;2024-01-30T12:18:45;13.80;;;6.40;;
84491;SDS011;74718;40.778;21.400;2024-01-30T12:21:11;9.40;;;3.70;;
84491;SDS011;74718;40.778;21.400;2024-01-30T12:23:36;6.90;;;3.90;;
84491;SDS011;74718;40.778;21.400;2024-01-30T12:26:02;11.10;;;4.80;;
84491;SDS011;74718;40.778;21.400;2024-01-30T12:28:32;10.00;;;4.10;;
84491;SDS011;74718;40.778;21.400;2024-01-30T12:31:04;15.10;;;8.20;;
84491;SDS011;74718;40.778;21.400;2024-01-30T12:33:30;8.30;;;4.50;;
84491;SDS011;74718;40.778;21.400;2024-01-30T12:35:56;9.20;;;5.20;;
84491;SDS011;74718;40.778;21.400;2024-01-30T12:38:24;6.30;;;3.50;;
84491;SDS011;74718;40.778;21.400;2024-01-30T12:40:50;18.40;;;9.90;;
84491;SDS011;74718;40.778;21.400;2024-01-30T12:43:20;8.40;;;2.80;;
84491;SDS011;74718;40.778;21.400;2024-01-30T12:45:47;6.20;;;3.10;;
84491;SDS011;74718;40.778;21.400;2024-01-30T12:48:12;8.90;;;3.40;;
84491;SDS011;74718;40.778;21.400;2024-01-30T12:50:38;9.80;;;3.20;;
84491;SDS011;74718;40.778;21.400;2024-01-30T12:53:03;8.60;;;4.60;;
84491;SDS011;74718;40.778;21.400;2024-01-30T12:55:30;6.30;;;2.60;;
84491;SDS011;74718;40.778;21.400;2024-01-30T12:57:56;6.80;;;3.60;;
84491;SDS011;74718;40.778;21.400;2024-01-30T13:00:22;7.00;;;3.70;;
84491;SDS011;74718;40.778;21.400;2024-01-30T13:02:47;12.30;;;6.80;;
84491;SDS011;74718;40.778;21.400;2024-01-30T13:05:13;8.30;;;4.90;;
84491;SDS011;74718;40.778;21.400;2024-01-30T13:07:39;14.70;;;6.80;;
84491;SDS011;74718;40.778;21.400;2024-01-30T13:10:04;12.80;;;6.00;;
84491;SDS011;74718;40.778;21.400;2024-01-30T13:12:31;14.30;;;6.40;;
84491;SDS011;74718;40.778;21.400;2024-01-30T13:15:01;13.40;;;6.50;;
84491;SDS011;74718;40.778;21.400;2024-01-30T13:17:27;10.00;;;6.00;;
84491;SDS011;74718;40.778;21.400;2024-01-30T13:19:53;16.60;;;9.90;;
84491;SDS011;74718;40.778;21.400;2024-01-30T13:22:19;6.80;;;3.80;;
84491;SDS011;74718;40.778;21.400;2024-01-30T13:24:47;8.50;;;4.10;;
84491;SDS011;74718;40.778;21.400;2024-01-30T13:27:13;6.90;;;4.50;;
84491;SDS011;74718;40.778;21.400;2024-01-30T13:29:39;7.70;;;4.00;;
84491;SDS011;74718;40.778;21.400;2024-01-30T13:32:04;9.70;;;5.00;;
84491;SDS011;74718;40.778;21.400;2024-01-30T13:34:30;7.20;;;4.20;;
84491;SDS011;74718;40.778;21.400;2024-01-30T13:36:59;6.30;;;3.60;;
84491;SDS011;74718;40.778;21.400;2024-01-30T13:39:24;8.50;;;4.60;;
84491;SDS011;74718;40.778;21.400;2024-01-30T13:41:50;4.90;;;2.70;;
84491;SDS011;74718;40.778;21.400;2024-01-30T13:44:16;5.50;;;3.40;;
84491;SDS011;74718;40.778;21.400;2024-01-30T13:46:42;10.00;;;6.10;;
84491;SDS011;74718;40.778;21.400;2024-01-30T13:49:08;7.00;;;4.70;;
84491;SDS011;74718;40.778;21.400;2024-01-30T13:51:34;9.20;;;4.70;;
84491;SDS011;74718;40.778;21.400;2024-01-30T13:54:00;7.40;;;4.70;;
84491;SDS011;74718;40.778;21.400;2024-01-30T13:56:25;8.10;;;4.20;;
84491;SDS011;74718;40.778;21.400;2024-01-30T13:58:52;11.20;;;5.50;;
84491;SDS011;74718;40.778;21.400;2024-01-30T14:01:18;6.40;;;4.40;;
84491;SDS011;74718;40.778;21.400;2024-01-30T14:03:44;5.50;;;3.70;;
84491;SDS011;74718;40.778;21.400;2024-01-30T14:06:10;8.80;;;4.20;;
84491;SDS011;74718;40.778;21.400;2024-01-30T14:08:36;6.20;;;3.70;;
84491;SDS011;74718;40.778;21.400;2024-01-30T14:11:02;5.30;;;3.40;;
84491;SDS011;74718;40.778;21.400;2024-01-30T14:13:28;26.70;;;9.20;;
84491;SDS011;74718;40.778;21.400;2024-01-30T14:15:56;17.90;;;8.40;;
84491;SDS011;74718;40.778;21.400;2024-01-30T14:18:22;9.20;;;6.60;;
84491;SDS011;74718;40.778;21.400;2024-01-30T14:20:47;7.20;;;4.70;;
84491;SDS011;74718;40.778;21.400;2024-01-30T14:23:13;8.70;;;5.50;;
84491;SDS011;74718;40.778;21.400;2024-01-30T14:25:40;49.90;;;26.90;;